sensor_id;sensor_type;location;lat;lon;timestamp;P1;durP1;ratioP1;P2;durP2;ratioP2
42098;SDS011;27758;55.900;8.516;2023-05-16T00:02:15;22.35;;;6.30;;
42098;SDS011;27758;55.900;8.516;2023-05-16T00:04:42;19.65;;;5.78;;
42098;SDS011;27758;55.900;8.516;2023-05-16T00:07:08;24.02;;;6.25;;
42098;SDS011;27758;55.900;8.516;2023-05-16T00:09:33;19.00;;;5.55;;
42098;SDS011;27758;55.900;8.516;2023-05-16T00:11:59;24.58;;;5.75;;
42098;SDS011;27758;55.900;8.516;2023-05-16T00:14:25;18.80;;;5.57;;
42098;SDS011;27758;55.900;8.516;2023-05-16T00:16:54;27.95;;;5.53;;
42098;SDS011;27758;55.900;8.516;2023-05-16T00:19:22;19.48;;;5.13;;
42098;SDS011;27758;55.900;8.516;2023-05-16T00:21:48;24.63;;;5.97;;
42098;SDS011;27758;55.900;8.516;2023-05-16T00:24:13;31.45;;;5.75;;
42098;SDS011;27758;55.900;8.516;2023-05-16T00:26:39;18.95;;;5.15;;
42098;SDS011;27758;55.900;8.516;2023-05-16T00:29:05;16.63;;;5.60;;
42098;SDS011;27758;55.900;8.516;2023-05-16T00:31:31;24.15;;;5.43;;
42098;SDS011;27758;55.900;8.516;2023-05-16T00:33:56;18.92;;;5.97;;
42098;SDS011;27758;55.900;8.516;2023-05-16T00:36:22;21.13;;;5.18;;
42098;SDS011;27758;55.900;8.516;2023-05-16T00:38:48;23.48;;;5.80;;
42098;SDS011;27758;55.900;8.516;2023-05-16T00:41:16;21.98;;;5.20;;
42098;SDS011;27758;55.900;8.516;2023-05-16T00:43:42;19.95;;;5.38;;
42098;SDS011;27758;55.900;8.516;2023-05-16T00:46:07;28.52;;;5.80;;
42098;SDS011;27758;55.900;8.516;2023-05-16T00:48:33;15.35;;;5.38;;
42098;SDS011;27758;55.900;8.516;2023-05-16T00:50:59;21.48;;;5.95;;
42098;SDS011;27758;55.900;8.516;2023-05-16T00:53:25;23.73;;;6.13;;
42098;SDS011;27758;55.900;8.516;2023-05-16T00:55:51;33.53;;;5.55;;
42098;SDS011;27758;55.900;8.516;2023-05-16T00:58:17;17.25;;;4.90;;
42098;SDS011;27758;55.900;8.516;2023-05-16T01:00:45;25.02;;;5.57;;
42098;SDS011;27758;55.900;8.516;2023-05-16T01:03:11;19.52;;;5.32;;
42098;SDS011;27758;55.900;8.516;2023-05-16T01:05:43;14.40;;;4.85;;
42098;SDS011;27758;55.900;8.516;2023-05-16T01:08:09;19.90;;;5.30;;
42098;SDS011;27758;55.900;8.516;2023-05-16T01:10:38;16.55;;;5.25;;
42098;SDS011;27758;55.900;8.516;2023-05-16T01:13:11;19.20;;;5.32;;
42098;SDS011;27758;55.900;8.516;2023-05-16T01:15:47;23.90;;;5.95;;
42098;SDS011;27758;55.900;8.516;2023-05-16T01:18:28;23.52;;;5.25;;
42098;SDS011;27758;55.900;8.516;2023-05-16T01:21:03;31.45;;;6.60;;
42098;SDS011;27758;55.900;8.516;2023-05-16T01:26:15;22.48;;;5.78;;
42098;SDS011;27758;55.900;8.516;2023-05-16T01:28:43;18.92;;;4.85;;
42098;SDS011;27758;55.900;8.516;2023-05-16T01:31:12;23.27;;;6.90;;
42098;SDS011;27758;55.900;8.516;2023-05-16T01:33:38;17.88;;;5.30;;
42098;SDS011;27758;55.900;8.516;2023-05-16T01:41:51;22.65;;;6.10;;
42098;SDS011;27758;55.900;8.516;2023-05-16T01:44:23;30.83;;;7.32;;
42098;SDS011;27758;55.900;8.516;2023-05-16T01:47:00;22.10;;;5.72;;
42098;SDS011;27758;55.900;8.516;2023-05-16T01:49:33;25.02;;;5.55;;
42098;SDS011;27758;55.900;8.516;2023-05-16T01:52:13;18.88;;;5.25;;
42098;SDS011;27758;55.900;8.516;2023-05-16T01:54:46;21.85;;;5.35;;
42098;SDS011;27758;55.900;8.516;2023-05-16T01:57:13;21.52;;;5.07;;
42098;SDS011;27758;55.900;8.516;2023-05-16T01:59:40;15.65;;;5.00;;
42098;SDS011;27758;55.900;8.516;2023-05-16T02:02:07;17.35;;;5.50;;
42098;SDS011;27758;55.900;8.516;2023-05-16T02:04:32;17.05;;;5.22;;
42098;SDS011;27758;55.900;8.516;2023-05-16T02:06:58;23.25;;;6.03;;
42098;SDS011;27758;55.900;8.516;2023-05-16T02:09:25;18.52;;;5.25;;
42098;SDS011;27758;55.900;8.516;2023-05-16T02:11:51;21.58;;;5.90;;
42098;SDS011;27758;55.900;8.516;2023-05-16T02:14:17;25.20;;;5.25;;
42098;SDS011;27758;55.900;8.516;2023-05-16T02:16:43;27.60;;;6.72;;
42098;SDS011;27758;55.900;8.516;2023-05-16T02:19:09;25.50;;;5.80;;
42098;SDS011;27758;55.900;8.516;2023-05-16T02:21:35;24.92;;;5.82;;
42098;SDS011;27758;55.900;8.516;2023-05-16T02:24:00;32.13;;;7.10;;
42098;SDS011;27758;55.900;8.516;2023-05-16T02:26:26;20.33;;;5.35;;
42098;SDS011;27758;55.900;8.516;2023-05-16T02:28:52;21.42;;;6.03;;
42098;SDS011;27758;55.900;8.516;2023-05-16T02:31:25;27.20;;;6.07;;
42098;SDS011;27758;55.900;8.516;2023-05-16T02:33:55;22.17;;;6.55;;
42098;SDS011;27758;55.900;8.516;2023-05-16T02:36:22;24.48;;;6.20;;
42098;SDS011;27758;55.900;8.516;2023-05-16T02:38:48;23.52;;;5.78;;
42098;SDS011;27758;55.900;8.516;2023-05-16T02:41:14;25.75;;;6.43;;
42098;SDS011;27758;55.900;8.516;2023-05-16T02:43:40;30.67;;;6.25;;
42098;SDS011;27758;55.900;8.516;2023-05-16T02:48:51;26.15;;;6.07;;
42098;SDS011;27758;55.900;8.516;2023-05-16T02:51:18;23.30;;;5.95;;
42098;SDS011;27758;55.900;8.516;2023-05-16T02:53:45;24.30;;;6.10;;
42098;SDS011;27758;55.900;8.516;2023-05-16T02:56:10;26.33;;;6.28;;
42098;SDS011;27758;55.900;8.516;2023-05-16T02:58:36;20.98;;;5.35;;
42098;SDS011;27758;55.900;8.516;2023-05-16T03:01:02;24.50;;;5.70;;
42098;SDS011;27758;55.900;8.516;2023-05-16T03:03:28;21.38;;;5.93;;
42098;SDS011;27758;55.900;8.516;2023-05-16T03:05:54;22.45;;;5.80;;
42098;SDS011;27758;55.900;8.516;2023-05-16T03:08:20;27.63;;;6.13;;
42098;SDS011;27758;55.900;8.516;2023-05-16T03:10:45;22.35;;;5.40;;
42098;SDS011;27758;55.900;8.516;2023-05-16T03:13:11;20.35;;;5.20;;
42098;SDS011;27758;55.900;8.516;2023-05-16T03:15:37;28.83;;;7.07;;
42098;SDS011;27758;55.900;8.516;2023-05-16T03:18:02;24.48;;;6.38;;
42098;SDS011;27758;55.900;8.516;2023-05-16T03:20:28;22.27;;;5.70;;
42098;SDS011;27758;55.900;8.516;2023-05-16T03:22:54;20.63;;;6.13;;
42098;SDS011;27758;55.900;8.516;2023-05-16T03:25:19;21.65;;;5.22;;
42098;SDS011;27758;55.900;8.516;2023-05-16T03:27:45;18.83;;;5.70;;
42098;SDS011;27758;55.900;8.516;2023-05-16T03:30:11;20.90;;;5.72;;
42098;SDS011;27758;55.900;8.516;2023-05-16T03:32:37;26.20;;;5.85;;
42098;SDS011;27758;55.900;8.516;2023-05-16T03:35:06;23.75;;;6.00;;
42098;SDS011;27758;55.900;8.516;2023-05-16T03:37:32;24.63;;;5.57;;
42098;SDS011;27758;55.900;8.516;2023-05-16T03:39:58;21.25;;;5.90;;
42098;SDS011;27758;55.900;8.516;2023-05-16T03:42:24;25.17;;;5.80;;
42098;SDS011;27758;55.900;8.516;2023-05-16T03:44:49;21.63;;;6.55;;
42098;SDS011;27758;55.900;8.516;2023-05-16T03:47:15;21.17;;;5.53;;
42098;SDS011;27758;55.900;8.516;2023-05-16T03:49:41;19.90;;;5.93;;
42098;SDS011;27758;55.900;8.516;2023-05-16T03:52:07;21.80;;;5.93;;
42098;SDS011;27758;55.900;8.516;2023-05-16T03:54:32;25.17;;;5.63;;
42098;SDS011;27758;55.900;8.516;2023-05-16T03:56:58;20.80;;;6.47;;
42098;SDS011;27758;55.900;8.516;2023-05-16T03:59:24;23.08;;;5.55;;
42098;SDS011;27758;55.900;8.516;2023-05-16T04:01:49;25.10;;;5.90;;
42098;SDS011;27758;55.900;8.516;2023-05-16T04:04:15;26.55;;;6.22;;
42098;SDS011;27758;55.900;8.516;2023-05-16T04:06:41;19.30;;;4.57;;
42098;SDS011;27758;55.900;8.516;2023-05-16T04:09:06;19.88;;;5.57;;
42098;SDS011;27758;55.900;8.516;2023-05-16T04:11:32;26.70;;;7.45;;
42098;SDS011;27758;55.900;8.516;2023-05-16T04:13:58;25.67;;;5.68;;
42098;SDS011;27758;55.900;8.516;2023-05-16T04:16:25;22.65;;;5.57;;
42098;SDS011;27758;55.900;8.516;2023-05-16T04:18:51;24.08;;;7.50;;
42098;SDS011;27758;55.900;8.516;2023-05-16T04:21:18;21.00;;;6.38;;
42098;SDS011;27758;55.900;8.516;2023-05-16T04:26:14;19.58;;;5.20;;
42098;SDS011;27758;55.900;8.516;2023-05-16T04:28:39;18.75;;;6.32;;
42098;SDS011;27758;55.900;8.516;2023-05-16T04:31:05;23.40;;;6.38;;
42098;SDS011;27758;55.900;8.516;2023-05-16T04:33:32;22.08;;;5.32;;
42098;SDS011;27758;55.900;8.516;2023-05-16T04:36:01;19.85;;;6.50;;
42098;SDS011;27758;55.900;8.516;2023-05-16T04:38:27;26.77;;;7.10;;
42098;SDS011;27758;55.900;8.516;2023-05-16T04:40:53;20.48;;;6.43;;
42098;SDS011;27758;55.900;8.516;2023-05-16T04:43:19;22.38;;;6.15;;
42098;SDS011;27758;55.900;8.516;2023-05-16T04:45:45;26.17;;;5.95;;
42098;SDS011;27758;55.900;8.516;2023-05-16T04:48:11;19.30;;;5.50;;
42098;SDS011;27758;55.900;8.516;2023-05-16T04:50:38;15.07;;;5.78;;
42098;SDS011;27758;55.900;8.516;2023-05-16T04:53:03;30.63;;;6.22;;
42098;SDS011;27758;55.900;8.516;2023-05-16T04:55:29;18.40;;;5.78;;
42098;SDS011;27758;55.900;8.516;2023-05-16T04:57:57;23.13;;;6.28;;
42098;SDS011;27758;55.900;8.516;2023-05-16T05:00:23;20.58;;;5.30;;
42098;SDS011;27758;55.900;8.516;2023-05-16T05:02:51;20.30;;;6.40;;
42098;SDS011;27758;55.900;8.516;2023-05-16T05:05:16;16.77;;;5.13;;
42098;SDS011;27758;55.900;8.516;2023-05-16T05:07:45;21.98;;;5.85;;
42098;SDS011;27758;55.900;8.516;2023-05-16T05:10:11;27.55;;;7.47;;
42098;SDS011;27758;55.900;8.516;2023-05-16T05:12:36;25.15;;;7.50;;
42098;SDS011;27758;55.900;8.516;2023-05-16T05:15:03;22.20;;;6.28;;
42098;SDS011;27758;55.900;8.516;2023-05-16T05:17:29;19.00;;;5.95;;
42098;SDS011;27758;55.900;8.516;2023-05-16T05:19:55;22.95;;;6.22;;
42098;SDS011;27758;55.900;8.516;2023-05-16T05:22:20;22.42;;;6.93;;
42098;SDS011;27758;55.900;8.516;2023-05-16T05:24:46;21.35;;;5.18;;
42098;SDS011;27758;55.900;8.516;2023-05-16T05:27:12;28.50;;;5.78;;
42098;SDS011;27758;55.900;8.516;2023-05-16T05:29:37;26.20;;;6.00;;
42098;SDS011;27758;55.900;8.516;2023-05-16T05:32:04;31.65;;;6.03;;
42098;SDS011;27758;55.900;8.516;2023-05-16T05:34:32;22.92;;;5.28;;
42098;SDS011;27758;55.900;8.516;2023-05-16T05:36:58;23.02;;;5.97;;
42098;SDS011;27758;55.900;8.516;2023-05-16T05:39:27;26.13;;;7.60;;
42098;SDS011;27758;55.900;8.516;2023-05-16T05:41:53;25.13;;;6.43;;
42098;SDS011;27758;55.900;8.516;2023-05-16T05:44:19;27.50;;;6.32;;
42098;SDS011;27758;55.900;8.516;2023-05-16T05:46:45;26.50;;;6.82;;
42098;SDS011;27758;55.900;8.516;2023-05-16T05:49:10;24.48;;;8.57;;
42098;SDS011;27758;55.900;8.516;2023-05-16T05:51:37;23.27;;;6.70;;
42098;SDS011;27758;55.900;8.516;2023-05-16T05:54:02;21.60;;;7.70;;
42098;SDS011;27758;55.900;8.516;2023-05-16T05:56:31;33.47;;;7.00;;
42098;SDS011;27758;55.900;8.516;2023-05-16T05:58:56;21.75;;;5.50;;
42098;SDS011;27758;55.900;8.516;2023-05-16T06:01:22;16.73;;;5.68;;
42098;SDS011;27758;55.900;8.516;2023-05-16T06:03:49;27.90;;;6.78;;
42098;SDS011;27758;55.900;8.516;2023-05-16T06:06:16;21.48;;;5.97;;
42098;SDS011;27758;55.900;8.516;2023-05-16T06:08:42;20.77;;;5.45;;
42098;SDS011;27758;55.900;8.516;2023-05-16T06:11:07;17.40;;;5.63;;
42098;SDS011;27758;55.900;8.516;2023-05-16T06:13:33;22.67;;;6.03;;
42098;SDS011;27758;55.900;8.516;2023-05-16T06:15:59;23.20;;;5.82;;
42098;SDS011;27758;55.900;8.516;2023-05-16T06:18:25;21.83;;;5.78;;
42098;SDS011;27758;55.900;8.516;2023-05-16T06:20:51;19.90;;;5.38;;
42098;SDS011;27758;55.900;8.516;2023-05-16T06:23:17;26.50;;;6.03;;
42098;SDS011;27758;55.900;8.516;2023-05-16T06:25:44;19.92;;;5.25;;
42098;SDS011;27758;55.900;8.516;2023-05-16T06:28:10;23.55;;;6.38;;
42098;SDS011;27758;55.900;8.516;2023-05-16T06:30:35;23.33;;;5.88;;
42098;SDS011;27758;55.900;8.516;2023-05-16T06:33:01;22.80;;;6.25;;
42098;SDS011;27758;55.900;8.516;2023-05-16T06:35:27;21.42;;;6.90;;
42098;SDS011;27758;55.900;8.516;2023-05-16T06:37:52;31.67;;;6.07;;
42098;SDS011;27758;55.900;8.516;2023-05-16T06:40:18;24.45;;;6.07;;
42098;SDS011;27758;55.900;8.516;2023-05-16T06:42:43;34.65;;;6.88;;
42098;SDS011;27758;55.900;8.516;2023-05-16T06:45:09;31.13;;;6.45;;
42098;SDS011;27758;55.900;8.516;2023-05-16T06:47:38;31.17;;;5.60;;
42098;SDS011;27758;55.900;8.516;2023-05-16T06:50:03;22.30;;;6.15;;
42098;SDS011;27758;55.900;8.516;2023-05-16T06:52:30;23.50;;;6.32;;
42098;SDS011;27758;55.900;8.516;2023-05-16T06:54:56;27.27;;;6.38;;
42098;SDS011;27758;55.900;8.516;2023-05-16T06:57:21;35.42;;;6.95;;
42098;SDS011;27758;55.900;8.516;2023-05-16T06:59:47;21.35;;;6.32;;
42098;SDS011;27758;55.900;8.516;2023-05-16T07:02:13;31.10;;;8.05;;
42098;SDS011;27758;55.900;8.516;2023-05-16T07:04:38;23.77;;;6.38;;
42098;SDS011;27758;55.900;8.516;2023-05-16T07:07:04;28.70;;;7.32;;
42098;SDS011;27758;55.900;8.516;2023-05-16T07:09:32;31.38;;;7.60;;
42098;SDS011;27758;55.900;8.516;2023-05-16T07:11:58;23.40;;;5.88;;
42098;SDS011;27758;55.900;8.516;2023-05-16T07:14:23;34.78;;;6.72;;
42098;SDS011;27758;55.900;8.516;2023-05-16T07:16:49;29.20;;;7.47;;
42098;SDS011;27758;55.900;8.516;2023-05-16T07:19:15;31.92;;;6.40;;
42098;SDS011;27758;55.900;8.516;2023-05-16T07:21:40;25.10;;;6.78;;
42098;SDS011;27758;55.900;8.516;2023-05-16T07:24:06;29.08;;;7.20;;
42098;SDS011;27758;55.900;8.516;2023-05-16T07:26:32;29.77;;;6.32;;
42098;SDS011;27758;55.900;8.516;2023-05-16T07:29:00;30.95;;;6.18;;
42098;SDS011;27758;55.900;8.516;2023-05-16T07:31:38;28.13;;;6.57;;
42098;SDS011;27758;55.900;8.516;2023-05-16T07:34:06;25.75;;;5.95;;
42098;SDS011;27758;55.900;8.516;2023-05-16T07:36:33;22.27;;;6.15;;
42098;SDS011;27758;55.900;8.516;2023-05-16T07:38:59;26.45;;;6.25;;
42098;SDS011;27758;55.900;8.516;2023-05-16T07:41:25;32.15;;;6.93;;
42098;SDS011;27758;55.900;8.516;2023-05-16T07:43:51;21.88;;;6.05;;
42098;SDS011;27758;55.900;8.516;2023-05-16T07:46:17;33.58;;;7.53;;
42098;SDS011;27758;55.900;8.516;2023-05-16T07:48:49;39.28;;;6.55;;
42098;SDS011;27758;55.900;8.516;2023-05-16T07:51:24;27.00;;;7.15;;
42098;SDS011;27758;55.900;8.516;2023-05-16T07:53:49;28.25;;;6.63;;
42098;SDS011;27758;55.900;8.516;2023-05-16T07:56:16;18.38;;;5.85;;
42098;SDS011;27758;55.900;8.516;2023-05-16T07:58:42;25.73;;;6.15;;
42098;SDS011;27758;55.900;8.516;2023-05-16T08:01:07;29.15;;;6.57;;
42098;SDS011;27758;55.900;8.516;2023-05-16T08:03:34;28.25;;;5.55;;
42098;SDS011;27758;55.900;8.516;2023-05-16T08:06:00;25.65;;;6.47;;
42098;SDS011;27758;55.900;8.516;2023-05-16T08:08:25;24.15;;;5.78;;
42098;SDS011;27758;55.900;8.516;2023-05-16T08:10:51;33.97;;;7.00;;
42098;SDS011;27758;55.900;8.516;2023-05-16T08:13:17;27.77;;;6.25;;
42098;SDS011;27758;55.900;8.516;2023-05-16T08:15:42;18.27;;;5.35;;
42098;SDS011;27758;55.900;8.516;2023-05-16T08:18:12;23.83;;;7.00;;
42098;SDS011;27758;55.900;8.516;2023-05-16T08:20:39;25.17;;;6.13;;
42098;SDS011;27758;55.900;8.516;2023-05-16T08:23:06;28.13;;;5.97;;
42098;SDS011;27758;55.900;8.516;2023-05-16T08:25:32;32.05;;;6.45;;
42098;SDS011;27758;55.900;8.516;2023-05-16T08:27:58;23.88;;;5.90;;
42098;SDS011;27758;55.900;8.516;2023-05-16T08:30:25;23.05;;;5.65;;
42098;SDS011;27758;55.900;8.516;2023-05-16T08:32:53;28.23;;;6.10;;
42098;SDS011;27758;55.900;8.516;2023-05-16T08:35:18;22.92;;;6.05;;
42098;SDS011;27758;55.900;8.516;2023-05-16T08:37:44;33.60;;;6.47;;
42098;SDS011;27758;55.900;8.516;2023-05-16T08:40:10;20.65;;;5.90;;
42098;SDS011;27758;55.900;8.516;2023-05-16T08:42:38;29.13;;;6.95;;
42098;SDS011;27758;55.900;8.516;2023-05-16T08:45:04;31.17;;;5.93;;
42098;SDS011;27758;55.900;8.516;2023-05-16T08:47:32;31.00;;;7.30;;
42098;SDS011;27758;55.900;8.516;2023-05-16T08:50:01;26.65;;;7.00;;
42098;SDS011;27758;55.900;8.516;2023-05-16T08:52:28;24.02;;;6.07;;
42098;SDS011;27758;55.900;8.516;2023-05-16T08:54:56;25.30;;;6.53;;
42098;SDS011;27758;55.900;8.516;2023-05-16T08:57:27;28.98;;;8.77;;
42098;SDS011;27758;55.900;8.516;2023-05-16T08:59:55;20.40;;;5.65;;
42098;SDS011;27758;55.900;8.516;2023-05-16T09:02:22;22.30;;;6.97;;
42098;SDS011;27758;55.900;8.516;2023-05-16T09:04:48;25.23;;;6.85;;
42098;SDS011;27758;55.900;8.516;2023-05-16T09:07:14;25.42;;;6.57;;
42098;SDS011;27758;55.900;8.516;2023-05-16T09:09:40;27.05;;;7.03;;
42098;SDS011;27758;55.900;8.516;2023-05-16T09:12:06;26.67;;;6.35;;
42098;SDS011;27758;55.900;8.516;2023-05-16T09:14:32;26.67;;;6.22;;
42098;SDS011;27758;55.900;8.516;2023-05-16T09:17:03;23.90;;;6.40;;
42098;SDS011;27758;55.900;8.516;2023-05-16T09:19:36;23.02;;;5.80;;
42098;SDS011;27758;55.900;8.516;2023-05-16T09:22:03;23.20;;;5.90;;
42098;SDS011;27758;55.900;8.516;2023-05-16T09:24:29;31.15;;;6.43;;
42098;SDS011;27758;55.900;8.516;2023-05-16T09:26:55;22.50;;;6.13;;
42098;SDS011;27758;55.900;8.516;2023-05-16T09:29:21;26.60;;;5.72;;
42098;SDS011;27758;55.900;8.516;2023-05-16T09:31:48;28.95;;;5.88;;
42098;SDS011;27758;55.900;8.516;2023-05-16T09:34:14;21.15;;;5.55;;
42098;SDS011;27758;55.900;8.516;2023-05-16T09:36:39;29.45;;;6.75;;
42098;SDS011;27758;55.900;8.516;2023-05-16T09:39:06;18.27;;;5.53;;
42098;SDS011;27758;55.900;8.516;2023-05-16T09:41:32;32.42;;;5.97;;
42098;SDS011;27758;55.900;8.516;2023-05-16T09:44:02;25.63;;;6.00;;
42098;SDS011;27758;55.900;8.516;2023-05-16T09:46:30;24.63;;;6.57;;
42098;SDS011;27758;55.900;8.516;2023-05-16T09:48:58;19.73;;;6.50;;
42098;SDS011;27758;55.900;8.516;2023-05-16T09:51:23;26.88;;;6.43;;
42098;SDS011;27758;55.900;8.516;2023-05-16T09:53:53;23.90;;;6.07;;
42098;SDS011;27758;55.900;8.516;2023-05-16T09:56:19;22.10;;;5.82;;
42098;SDS011;27758;55.900;8.516;2023-05-16T09:58:45;26.17;;;5.53;;
42098;SDS011;27758;55.900;8.516;2023-05-16T10:01:11;25.40;;;5.68;;
42098;SDS011;27758;55.900;8.516;2023-05-16T10:03:38;21.27;;;6.68;;
42098;SDS011;27758;55.900;8.516;2023-05-16T10:06:05;23.85;;;6.32;;
42098;SDS011;27758;55.900;8.516;2023-05-16T10:08:33;22.25;;;5.22;;
42098;SDS011;27758;55.900;8.516;2023-05-16T10:11:01;19.80;;;6.50;;
42098;SDS011;27758;55.900;8.516;2023-05-16T10:13:28;21.63;;;5.22;;
42098;SDS011;27758;55.900;8.516;2023-05-16T10:15:56;18.50;;;5.53;;
42098;SDS011;27758;55.900;8.516;2023-05-16T10:18:30;22.67;;;5.78;;
42098;SDS011;27758;55.900;8.516;2023-05-16T10:20:57;21.48;;;5.43;;
42098;SDS011;27758;55.900;8.516;2023-05-16T10:23:32;26.38;;;5.80;;
42098;SDS011;27758;55.900;8.516;2023-05-16T10:25:59;25.60;;;5.28;;
42098;SDS011;27758;55.900;8.516;2023-05-16T10:28:27;23.15;;;6.53;;
42098;SDS011;27758;55.900;8.516;2023-05-16T10:30:53;22.15;;;5.18;;
42098;SDS011;27758;55.900;8.516;2023-05-16T10:33:20;20.10;;;5.65;;
42098;SDS011;27758;55.900;8.516;2023-05-16T10:35:46;19.33;;;5.15;;
42098;SDS011;27758;55.900;8.516;2023-05-16T10:38:14;25.27;;;5.65;;
42098;SDS011;27758;55.900;8.516;2023-05-16T10:40:41;22.60;;;5.57;;
42098;SDS011;27758;55.900;8.516;2023-05-16T10:43:08;20.17;;;5.72;;
42098;SDS011;27758;55.900;8.516;2023-05-16T10:45:39;23.77;;;7.10;;
42098;SDS011;27758;55.900;8.516;2023-05-16T10:48:09;20.52;;;5.43;;
42098;SDS011;27758;55.900;8.516;2023-05-16T10:50:37;23.33;;;6.47;;
42098;SDS011;27758;55.900;8.516;2023-05-16T11:01:20;16.95;;;5.30;;
42098;SDS011;27758;55.900;8.516;2023-05-16T11:06:24;19.42;;;4.78;;
42098;SDS011;27758;55.900;8.516;2023-05-16T11:19:48;22.17;;;5.65;;
42098;SDS011;27758;55.900;8.516;2023-05-16T11:27:27;18.95;;;5.50;;
42098;SDS011;27758;55.900;8.516;2023-05-16T11:30:13;25.02;;;6.20;;
42098;SDS011;27758;55.900;8.516;2023-05-16T11:32:42;25.10;;;5.78;;
42098;SDS011;27758;55.900;8.516;2023-05-16T11:35:10;26.23;;;6.35;;
42098;SDS011;27758;55.900;8.516;2023-05-16T11:37:37;22.85;;;5.43;;
42098;SDS011;27758;55.900;8.516;2023-05-16T11:40:06;24.30;;;5.63;;
42098;SDS011;27758;55.900;8.516;2023-05-16T11:42:34;24.50;;;6.38;;
42098;SDS011;27758;55.900;8.516;2023-05-16T11:45:05;27.50;;;6.30;;
42098;SDS011;27758;55.900;8.516;2023-05-16T11:47:36;26.55;;;6.03;;
42098;SDS011;27758;55.900;8.516;2023-05-16T11:50:09;19.17;;;5.57;;
42098;SDS011;27758;55.900;8.516;2023-05-16T11:52:36;26.20;;;5.68;;
42098;SDS011;27758;55.900;8.516;2023-05-16T11:55:05;15.65;;;5.05;;
42098;SDS011;27758;55.900;8.516;2023-05-16T11:57:34;18.08;;;5.22;;
42098;SDS011;27758;55.900;8.516;2023-05-16T12:00:07;21.95;;;6.85;;
42098;SDS011;27758;55.900;8.516;2023-05-16T12:02:40;29.23;;;5.68;;
42098;SDS011;27758;55.900;8.516;2023-05-16T12:05:06;18.73;;;5.65;;
42098;SDS011;27758;55.900;8.516;2023-05-16T12:07:33;21.17;;;5.85;;
42098;SDS011;27758;55.900;8.516;2023-05-16T12:10:04;23.95;;;5.85;;
42098;SDS011;27758;55.900;8.516;2023-05-16T12:12:35;20.10;;;5.57;;
42098;SDS011;27758;55.900;8.516;2023-05-16T12:15:02;24.23;;;6.55;;
42098;SDS011;27758;55.900;8.516;2023-05-16T12:17:30;20.20;;;5.60;;
42098;SDS011;27758;55.900;8.516;2023-05-16T12:20:00;23.52;;;6.10;;
42098;SDS011;27758;55.900;8.516;2023-05-16T12:22:26;22.77;;;6.32;;
42098;SDS011;27758;55.900;8.516;2023-05-16T12:24:52;23.73;;;6.75;;
42098;SDS011;27758;55.900;8.516;2023-05-16T12:27:21;31.00;;;6.10;;
42098;SDS011;27758;55.900;8.516;2023-05-16T12:29:47;25.95;;;6.53;;
42098;SDS011;27758;55.900;8.516;2023-05-16T12:32:17;28.73;;;6.28;;
42098;SDS011;27758;55.900;8.516;2023-05-16T12:34:53;24.55;;;5.78;;
42098;SDS011;27758;55.900;8.516;2023-05-16T12:37:20;24.30;;;5.63;;
42098;SDS011;27758;55.900;8.516;2023-05-16T12:39:46;24.10;;;6.43;;
42098;SDS011;27758;55.900;8.516;2023-05-16T12:42:12;24.10;;;6.95;;
42098;SDS011;27758;55.900;8.516;2023-05-16T12:44:39;24.90;;;6.43;;
42098;SDS011;27758;55.900;8.516;2023-05-16T12:47:11;27.02;;;6.03;;
42098;SDS011;27758;55.900;8.516;2023-05-16T12:49:46;24.17;;;6.05;;
42098;SDS011;27758;55.900;8.516;2023-05-16T12:52:19;23.42;;;6.50;;
42098;SDS011;27758;55.900;8.516;2023-05-16T12:54:46;23.20;;;6.55;;
42098;SDS011;27758;55.900;8.516;2023-05-16T12:57:12;17.65;;;5.35;;
42098;SDS011;27758;55.900;8.516;2023-05-16T12:59:38;20.08;;;6.35;;
42098;SDS011;27758;55.900;8.516;2023-05-16T13:02:04;23.85;;;6.97;;
42098;SDS011;27758;55.900;8.516;2023-05-16T13:04:30;24.10;;;6.70;;
42098;SDS011;27758;55.900;8.516;2023-05-16T13:06:56;26.83;;;7.35;;
42098;SDS011;27758;55.900;8.516;2023-05-16T13:09:22;22.35;;;6.63;;
42098;SDS011;27758;55.900;8.516;2023-05-16T13:11:48;24.42;;;6.75;;
42098;SDS011;27758;55.900;8.516;2023-05-16T13:14:17;25.85;;;7.13;;
42098;SDS011;27758;55.900;8.516;2023-05-16T13:16:43;21.15;;;7.00;;
42098;SDS011;27758;55.900;8.516;2023-05-16T13:19:08;21.13;;;6.18;;
42098;SDS011;27758;55.900;8.516;2023-05-16T13:21:34;27.95;;;8.05;;
42098;SDS011;27758;55.900;8.516;2023-05-16T13:24:02;29.95;;;6.97;;
42098;SDS011;27758;55.900;8.516;2023-05-16T13:26:28;25.95;;;7.53;;
42098;SDS011;27758;55.900;8.516;2023-05-16T13:28:54;27.90;;;7.05;;
42098;SDS011;27758;55.900;8.516;2023-05-16T13:31:20;26.92;;;7.55;;
42098;SDS011;27758;55.900;8.516;2023-05-16T13:33:46;22.88;;;6.50;;
42098;SDS011;27758;55.900;8.516;2023-05-16T13:36:12;32.20;;;7.20;;
42098;SDS011;27758;55.900;8.516;2023-05-16T13:38:38;23.48;;;7.70;;
42098;SDS011;27758;55.900;8.516;2023-05-16T13:41:05;28.33;;;7.72;;
42098;SDS011;27758;55.900;8.516;2023-05-16T13:43:31;23.08;;;7.38;;
42098;SDS011;27758;55.900;8.516;2023-05-16T13:45:56;26.90;;;7.90;;
42098;SDS011;27758;55.900;8.516;2023-05-16T13:48:22;33.03;;;9.43;;
42098;SDS011;27758;55.900;8.516;2023-05-16T13:50:48;26.42;;;7.68;;
42098;SDS011;27758;55.900;8.516;2023-05-16T13:53:16;21.13;;;6.90;;
42098;SDS011;27758;55.900;8.516;2023-05-16T13:55:41;22.65;;;8.35;;
42098;SDS011;27758;55.900;8.516;2023-05-16T13:58:07;30.67;;;7.95;;
42098;SDS011;27758;55.900;8.516;2023-05-16T14:00:33;28.75;;;8.10;;
42098;SDS011;27758;55.900;8.516;2023-05-16T14:03:05;30.92;;;10.15;;
42098;SDS011;27758;55.900;8.516;2023-05-16T14:05:30;30.13;;;9.23;;
42098;SDS011;27758;55.900;8.516;2023-05-16T14:07:56;25.10;;;8.65;;
42098;SDS011;27758;55.900;8.516;2023-05-16T14:10:22;34.17;;;9.15;;
42098;SDS011;27758;55.900;8.516;2023-05-16T14:12:48;30.23;;;8.73;;
42098;SDS011;27758;55.900;8.516;2023-05-16T14:15:13;28.10;;;9.25;;
42098;SDS011;27758;55.900;8.516;2023-05-16T14:17:39;26.30;;;8.45;;
42098;SDS011;27758;55.900;8.516;2023-05-16T14:20:05;30.05;;;8.65;;
42098;SDS011;27758;55.900;8.516;2023-05-16T14:22:34;28.85;;;8.50;;
42098;SDS011;27758;55.900;8.516;2023-05-16T14:25:00;28.40;;;8.38;;
42098;SDS011;27758;55.900;8.516;2023-05-16T14:27:30;27.20;;;8.85;;
42098;SDS011;27758;55.900;8.516;2023-05-16T14:29:55;30.92;;;9.48;;
42098;SDS011;27758;55.900;8.516;2023-05-16T14:32:23;24.38;;;7.97;;
42098;SDS011;27758;55.900;8.516;2023-05-16T14:34:49;32.95;;;10.23;;
42098;SDS011;27758;55.900;8.516;2023-05-16T14:37:15;33.85;;;9.30;;
42098;SDS011;27758;55.900;8.516;2023-05-16T14:39:41;29.10;;;9.32;;
42098;SDS011;27758;55.900;8.516;2023-05-16T14:42:10;37.25;;;9.38;;
42098;SDS011;27758;55.900;8.516;2023-05-16T14:44:36;27.23;;;8.45;;
42098;SDS011;27758;55.900;8.516;2023-05-16T14:47:02;28.90;;;9.48;;
42098;SDS011;27758;55.900;8.516;2023-05-16T14:49:28;31.10;;;9.50;;
42098;SDS011;27758;55.900;8.516;2023-05-16T14:51:56;34.58;;;10.02;;
42098;SDS011;27758;55.900;8.516;2023-05-16T14:54:21;29.67;;;9.77;;
42098;SDS011;27758;55.900;8.516;2023-05-16T14:56:47;30.00;;;9.90;;
42098;SDS011;27758;55.900;8.516;2023-05-16T14:59:13;27.90;;;8.52;;
42098;SDS011;27758;55.900;8.516;2023-05-16T15:01:39;31.30;;;9.23;;
42098;SDS011;27758;55.900;8.516;2023-05-16T15:04:05;33.20;;;11.02;;
42098;SDS011;27758;55.900;8.516;2023-05-16T15:06:31;25.27;;;8.50;;
42098;SDS011;27758;55.900;8.516;2023-05-16T15:08:56;36.72;;;10.82;;
42098;SDS011;27758;55.900;8.516;2023-05-16T15:11:22;29.50;;;9.07;;
42098;SDS011;27758;55.900;8.516;2023-05-16T15:13:48;31.92;;;10.23;;